Time;durP1;ratioP1;P1;durP2;ratioP2;P2;SDS_P1;SDS_P2;PMS_P1;PMS_P2;Temp;Humidity;BMP_temperature;BMP_pressure;BME280_temperature;BME280_humidity;BME280_pressure;Samples;Min_cycle;Max_cycle;Signal;HPM_P1;HPM_P2
2024/01/25 00:00:58;;;;;;;4.33;3.50;;;2.00;93.60;;;;;;6329675;22;20172;-81
2024/01/25 00:03:27;;;;;;;3.23;2.90;;;2.00;93.40;;;;;;6330283;22;20690;-81
2024/01/25 00:05:55;;;;;;;21.63;5.77;;;2.10;93.30;;;;;;6333811;22;20195;-82
2024/01/25 00:08:24;;;;;;;1.60;1.50;;;2.00;93.20;;;;;;6332095;22;20616;-81
2024/01/25 00:10:52;;;;;;;4.77;3.83;;;2.10;93.20;;;;;;6331361;22;20172;-82
2024/01/25 00:13:22;;;;;;;8.83;5.50;;;2.10;93.30;;;;;;6327841;22;20262;-81
2024/01/25 00:15:51;;;;;;;5.80;4.67;;;2.10;93.20;;;;;;6333029;22;20202;-81
2024/01/25 00:18:19;;;;;;;4.50;2.30;;;2.10;93.20;;;;;;6336165;22;20210;-82
2024/01/25 00:20:48;;;;;;;7.70;4.93;;;2.20;93.10;;;;;;6334836;22;20514;-81
2024/01/25 00:23:17;;;;;;;5.83;3.13;;;2.30;93.00;;;;;;6345569;22;20184;-82
2024/01/25 00:25:46;;;;;;;3.93;3.03;;;2.30;92.90;;;;;;6361434;22;20171;-82
2024/01/25 00:28:14;;;;;;;2.90;2.70;;;2.40;92.80;;;;;;6341769;22;20175;-81
2024/01/25 00:30:44;;;;;;;7.53;3.77;;;2.40;92.70;;;;;;6338852;22;20203;-81
2024/01/25 00:33:13;;;;;;;3.50;3.20;;;2.40;92.50;;;;;;6329180;22;20177;-82
2024/01/25 00:35:42;;;;;;;4.57;4.07;;;2.40;92.10;;;;;;6334118;22;20175;-82
2024/01/25 00:38:11;;;;;;;6.90;4.47;;;2.40;91.80;;;;;;6332480;22;20706;-82
2024/01/25 00:40:41;;;;;;;5.50;4.93;;;2.40;91.80;;;;;;6332316;22;20168;-82
2024/01/25 00:43:10;;;;;;;6.33;4.80;;;2.40;91.80;;;;;;6329144;22;20226;-82
2024/01/25 00:45:39;;;;;;;3.57;2.50;;;2.40;91.60;;;;;;6332704;22;20171;-82
2024/01/25 00:48:11;;;;;;;10.70;3.97;;;2.40;91.50;;;;;;6329354;22;20243;-81
2024/01/25 00:50:40;;;;;;;2.87;2.67;;;2.40;91.50;;;;;;6331677;22;20498;-81
2024/01/25 00:53:10;;;;;;;1.90;1.70;;;2.40;91.50;;;;;;6328801;22;20472;-82
2024/01/25 00:55:40;;;;;;;5.47;3.97;;;2.40;91.30;;;;;;6331880;22;20541;-82
2024/01/25 00:58:09;;;;;;;6.10;4.00;;;2.40;91.30;;;;;;6331280;22;20199;-82
2024/01/25 01:00:38;;;;;;;3.47;2.73;;;2.40;91.30;;;;;;6333530;22;20470;-81
2024/01/25 01:03:10;;;;;;;3.30;3.00;;;2.40;91.20;;;;;;6329664;22;20411;-82
2024/01/25 01:05:39;;;;;;;11.43;4.10;;;2.40;91.20;;;;;;6332637;22;20191;-82
2024/01/25 01:08:09;;;;;;;2.47;2.27;;;2.40;91.10;;;;;;6331713;22;20168;-81
2024/01/25 01:10:38;;;;;;;2.20;2.00;;;2.40;91.00;;;;;;6333850;22;20191;-82
2024/01/25 01:13:06;;;;;;;2.57;2.37;;;2.30;91.00;;;;;;6329056;22;20168;-83
2024/01/25 01:15:35;;;;;;;4.80;4.17;;;2.40;91.10;;;;;;6332921;22;20626;-82
2024/01/25 01:24:12;;;;;;;5.30;4.47;;;2.20;90.90;;;;;;6326156;22;20207;-81
2024/01/25 01:26:41;;;;;;;6.23;3.37;;;2.20;90.90;;;;;;6333174;22;20309;-82
2024/01/25 01:31:52;;;;;;;7.10;5.40;;;2.10;91.00;;;;;;6330864;22;20709;-82
2024/01/25 01:34:21;;;;;;;7.63;4.70;;;2.10;91.00;;;;;;6330355;22;20213;-82
2024/01/25 01:36:51;;;;;;;2.63;2.53;;;2.10;91.00;;;;;;6334101;22;20171;-82
2024/01/25 01:39:20;;;;;;;4.63;3.83;;;2.10;91.00;;;;;;6334669;22;20171;-82
2024/01/25 01:41:49;;;;;;;9.93;5.00;;;2.10;91.10;;;;;;6333226;22;20164;-81
2024/01/25 01:44:18;;;;;;;6.57;5.43;;;2.10;91.10;;;;;;6329554;22;20737;-82
2024/01/25 01:46:46;;;;;;;3.53;3.23;;;2.10;91.30;;;;;;6332712;22;20167;-82
2024/01/25 01:49:16;;;;;;;6.20;4.57;;;2.10;91.30;;;;;;6332948;22;20167;-81
2024/01/25 01:51:46;;;;;;;1.67;1.57;;;2.10;91.20;;;;;;6332638;22;20174;-81
2024/01/25 01:54:16;;;;;;;8.73;3.93;;;2.00;91.20;;;;;;6328712;22;20539;-82
2024/01/25 01:56:45;;;;;;;5.13;3.90;;;2.00;91.30;;;;;;6331058;22;20172;-81
2024/01/25 01:59:14;;;;;;;22.17;4.73;;;2.00;91.40;;;;;;6332299;22;20164;-81
2024/01/25 02:01:42;;;;;;;6.73;2.27;;;2.10;91.50;;;;;;6332655;22;20171;-81
2024/01/25 02:04:11;;;;;;;6.23;4.27;;;2.10;91.50;;;;;;6328201;22;20221;-81
2024/01/25 02:06:40;;;;;;;3.90;3.60;;;2.10;91.60;;;;;;6332730;22;20223;-81
2024/01/25 02:09:09;;;;;;;2.57;2.37;;;2.20;91.80;;;;;;6330837;22;20176;-81
2024/01/25 02:11:39;;;;;;;7.60;4.30;;;2.30;91.70;;;;;;6333637;22;20172;-80
2024/01/25 02:14:10;;;;;;;4.47;2.40;;;2.30;91.70;;;;;;6327306;22;20215;-80
2024/01/25 02:16:39;;;;;;;5.00;4.60;;;2.40;91.60;;;;;;6333018;22;20175;-80
2024/01/25 02:19:07;;;;;;;4.13;3.80;;;2.40;91.60;;;;;;6335634;22;20210;-80
2024/01/25 02:21:36;;;;;;;3.53;3.30;;;2.50;91.40;;;;;;6334783;22;20233;-80
2024/01/25 02:24:07;;;;;;;6.50;5.90;;;2.40;91.40;;;;;;6329499;22;20199;-80
2024/01/25 02:26:37;;;;;;;6.97;4.00;;;2.50;91.30;;;;;;6336629;22;20172;-80
2024/01/25 02:29:07;;;;;;;7.27;4.87;;;2.50;91.40;;;;;;6335148;22;20176;-80
2024/01/25 02:31:35;;;;;;;6.33;5.80;;;2.60;91.30;;;;;;6337162;22;20175;-80
2024/01/25 02:34:04;;;;;;;18.50;3.57;;;2.60;91.30;;;;;;6332036;22;20182;-80
2024/01/25 02:36:33;;;;;;;3.97;3.63;;;2.70;91.60;;;;;;6334747;22;20172;-80
2024/01/25 02:39:01;;;;;;;9.57;3.33;;;2.70;91.10;;;;;;6337223;22;20618;-80
2024/01/25 02:41:32;;;;;;;6.73;2.77;;;2.70;90.90;;;;;;6334397;22;20164;-80
2024/01/25 02:44:01;;;;;;;2.33;2.23;;;2.70;90.80;;;;;;6329756;22;20195;-80
2024/01/25 02:49:12;;;;;;;2.33;2.23;;;2.70;90.70;;;;;;6333910;22;20596;-80
2024/01/25 02:51:40;;;;;;;3.13;2.87;;;2.70;90.70;;;;;;6334972;22;20171;-80
2024/01/25 02:54:09;;;;;;;2.57;2.37;;;2.70;90.70;;;;;;6332427;22;20646;-80
2024/01/25 02:56:39;;;;;;;5.07;4.67;;;2.70;90.70;;;;;;6337016;22;20236;-80
2024/01/25 02:59:08;;;;;;;2.67;2.47;;;2.70;90.70;;;;;;6335545;22;20167;-80
2024/01/25 03:01:41;;;;;;;2.50;2.30;;;2.70;90.70;;;;;;6337025;22;20203;-80
2024/01/25 03:04:10;;;;;;;14.30;5.40;;;2.70;90.70;;;;;;6346037;22;20222;-81
2024/01/25 03:12:32;;;;;;;3.37;2.30;;;2.80;90.50;;;;;;6339295;22;20515;-81
2024/01/25 03:15:00;;;;;;;3.60;2.43;;;2.70;90.50;;;;;;6334754;22;20172;-81
2024/01/25 03:17:30;;;;;;;10.70;6.13;;;2.70;90.60;;;;;;6333117;22;20202;-80
2024/01/25 03:19:59;;;;;;;7.87;3.43;;;2.70;90.70;;;;;;6335018;22;20171;-80
2024/01/25 03:22:27;;;;;;;3.53;3.27;;;2.80;90.70;;;;;;6336272;22;20616;-80
2024/01/25 03:24:56;;;;;;;5.00;3.70;;;2.80;90.80;;;;;;6331538;22;20221;-80
2024/01/25 03:27:24;;;;;;;4.27;3.87;;;2.80;90.70;;;;;;6334949;22;20662;-80
2024/01/25 03:29:54;;;;;;;3.30;2.73;;;2.90;90.80;;;;;;6330759;22;20175;-80
2024/01/25 03:32:23;;;;;;;9.70;3.53;;;2.90;90.80;;;;;;6332179;22;20172;-81
2024/01/25 03:35:06;;;;;;;9.60;4.40;;;3.00;90.80;;;;;;6328580;22;20164;-81
2024/01/25 03:37:35;;;;;;;9.47;2.17;;;3.00;90.70;;;;;;6332443;22;20237;-81
2024/01/25 03:40:04;;;;;;;1.97;1.87;;;3.10;90.70;;;;;;6334514;22;20168;-81
2024/01/25 03:42:33;;;;;;;5.80;2.63;;;3.10;90.60;;;;;;6328876;22;20544;-80
2024/01/25 03:45:03;;;;;;;2.50;2.40;;;3.10;90.60;;;;;;6323370;22;20911;-81
2024/01/25 03:47:32;;;;;;;2.57;1.97;;;3.20;90.50;;;;;;6335437;22;20175;-81
2024/01/25 03:50:00;;;;;;;2.73;2.57;;;3.20;90.40;;;;;;6334332;22;20237;-81
2024/01/25 03:55:25;;;;;;;3.80;3.07;;;3.20;90.10;;;;;;6331355;22;20188;-81
2024/01/25 04:00:51;;;;;;;4.57;2.87;;;3.20;90.10;;;;;;6330171;22;20271;-81
2024/01/25 04:03:20;;;;;;;4.07;2.17;;;3.20;90.10;;;;;;6330369;22;20168;-81
2024/01/25 04:05:49;;;;;;;6.78;4.85;;;3.20;90.00;;;;;;6332197;22;20803;-81
2024/01/25 04:08:18;;;;;;;4.43;3.57;;;3.20;90.10;;;;;;6333769;22;20192;-80
2024/01/25 04:10:46;;;;;;;7.53;4.60;;;3.20;90.10;;;;;;6333331;22;20247;-81
2024/01/25 04:13:15;;;;;;;5.60;3.93;;;3.30;90.10;;;;;;6329066;22;20173;-81
2024/01/25 04:15:43;;;;;;;6.73;2.80;;;3.30;90.10;;;;;;6333527;22;20638;-81
2024/01/25 04:18:13;;;;;;;1.50;1.40;;;3.30;90.00;;;;;;6336180;22;21040;-81
2024/01/25 04:20:42;;;;;;;2.47;2.27;;;3.30;89.90;;;;;;6332397;22;20168;-80
2024/01/25 04:23:11;;;;;;;5.57;2.90;;;3.30;89.80;;;;;;6329227;22;20199;-81
2024/01/25 04:25:39;;;;;;;1.33;1.27;;;3.30;89.70;;;;;;6334179;22;20199;-81
2024/01/25 04:28:08;;;;;;;11.43;4.77;;;3.40;89.50;;;;;;6330287;22;20172;-81
2024/01/25 04:30:37;;;;;;;5.43;5.03;;;3.40;89.30;;;;;;6331718;22;20204;-80
2024/01/25 04:33:06;;;;;;;6.43;4.13;;;3.40;89.10;;;;;;6328654;22;20196;-82
2024/01/25 04:35:36;;;;;;;2.90;2.70;;;3.30;88.80;;;;;;6331993;22;20529;-80
2024/01/25 04:38:05;;;;;;;9.50;4.17;;;3.40;88.80;;;;;;6331941;22;20168;-81
2024/01/25 04:40:33;;;;;;;6.43;4.53;;;3.30;88.50;;;;;;6329001;22;20578;-81
2024/01/25 04:43:02;;;;;;;2.70;2.50;;;3.30;88.60;;;;;;6329605;22;20182;-82
2024/01/25 04:45:30;;;;;;;5.83;2.77;;;3.30;88.50;;;;;;6332649;22;20196;-81
2024/01/25 04:47:59;;;;;;;2.10;1.93;;;3.30;87.80;;;;;;6331690;22;20251;-81
2024/01/25 04:50:27;;;;;;;5.30;2.63;;;3.30;87.90;;;;;;6329584;22;20234;-80
2024/01/25 04:52:58;;;;;;;4.83;3.57;;;3.20;87.80;;;;;;6330211;22;20263;-81
2024/01/25 04:55:28;;;;;;;4.63;3.17;;;3.20;87.30;;;;;;6331059;22;20168;-80
2024/01/25 04:57:57;;;;;;;4.83;4.53;;;3.20;87.40;;;;;;6329227;22;20175;-80
2024/01/25 05:00:26;;;;;;;9.20;4.77;;;3.10;87.10;;;;;;6333352;22;20178;-80
2024/01/25 05:03:04;;;;;;;5.70;3.43;;;3.10;87.20;;;;;;6328369;22;20164;-81
2024/01/25 05:08:16;;;;;;;3.80;2.90;;;3.00;87.20;;;;;;6330838;22;20246;-81
2024/01/25 05:10:58;;;;;;;3.00;2.57;;;3.00;87.30;;;;;;6328366;22;20169;-81
2024/01/25 05:13:27;;;;;;;3.60;3.30;;;2.90;87.20;;;;;;6329451;22;20701;-81
2024/01/25 05:15:55;;;;;;;2.30;2.20;;;2.90;87.20;;;;;;6334586;22;20179;-80
2024/01/25 05:18:24;;;;;;;2.80;2.60;;;2.90;87.20;;;;;;6337699;22;20217;-81
2024/01/25 05:20:53;;;;;;;4.23;3.57;;;2.90;87.00;;;;;;6334047;22;20217;-81
2024/01/25 05:23:25;;;;;;;2.83;2.63;;;2.90;87.10;;;;;;6331160;22;20176;-82
2024/01/25 05:25:54;;;;;;;5.13;4.57;;;2.80;87.10;;;;;;6333550;22;20257;-82
2024/01/25 05:28:24;;;;;;;7.17;2.77;;;2.80;87.30;;;;;;6333543;22;20171;-81
2024/01/25 05:30:52;;;;;;;2.37;2.17;;;2.80;87.40;;;;;;6332778;22;20171;-81
2024/01/25 05:33:21;;;;;;;3.20;2.90;;;2.80;87.50;;;;;;6330712;22;20192;-81
2024/01/25 05:35:50;;;;;;;4.53;3.93;;;2.80;87.00;;;;;;6331836;22;20168;-78
2024/01/25 05:38:19;;;;;;;3.60;3.27;;;2.80;87.00;;;;;;6337820;22;20175;-80
2024/01/25 05:40:49;;;;;;;12.23;5.33;;;2.80;87.10;;;;;;6332948;22;20246;-81
2024/01/25 05:43:18;;;;;;;4.27;3.37;;;2.80;87.40;;;;;;6330253;22;20172;-81
2024/01/25 05:45:46;;;;;;;2.87;2.67;;;2.80;87.50;;;;;;6337074;22;20195;-80
2024/01/25 05:48:15;;;;;;;8.17;2.37;;;2.80;87.50;;;;;;6358195;22;20194;-81
2024/01/25 05:50:44;;;;;;;7.77;3.73;;;2.80;87.60;;;;;;6358356;22;20156;-83
2024/01/25 05:53:26;;;;;;;6.23;4.40;;;2.80;87.60;;;;;;6343316;22;20160;-81
2024/01/25 05:55:56;;;;;;;5.20;3.77;;;2.80;87.50;;;;;;6334754;22;20607;-81
2024/01/25 05:58:25;;;;;;;6.00;3.50;;;2.80;87.50;;;;;;6334571;22;20175;-82
2024/01/25 06:01:08;;;;;;;6.07;2.97;;;2.80;87.50;;;;;;6331968;22;20628;-81
2024/01/25 06:03:50;;;;;;;13.70;5.17;;;2.80;87.70;;;;;;6329133;22;20217;-81
2024/01/25 06:06:19;;;;;;;4.40;3.57;;;2.80;87.80;;;;;;6331830;22;20223;-81
2024/01/25 06:08:49;;;;;;;5.53;4.93;;;2.80;87.80;;;;;;6333736;22;20581;-81
2024/01/25 06:11:31;;;;;;;7.77;5.63;;;2.80;87.70;;;;;;6333599;22;20194;-80
2024/01/25 06:13:59;;;;;;;14.70;4.70;;;2.90;88.00;;;;;;6325534;22;20189;-80
2024/01/25 06:16:28;;;;;;;7.40;4.90;;;2.90;87.90;;;;;;6331273;22;20168;-79
2024/01/25 06:18:56;;;;;;;5.97;5.43;;;2.90;87.90;;;;;;6325499;22;20172;-80
2024/01/25 06:21:25;;;;;;;4.40;4.10;;;2.90;88.00;;;;;;6329942;22;20537;-81
2024/01/25 06:24:02;;;;;;;5.27;4.70;;;2.90;88.00;;;;;;6325978;22;20187;-80
2024/01/25 06:26:33;;;;;;;7.00;5.50;;;2.90;88.30;;;;;;6333032;22;20227;-81
2024/01/25 06:31:44;;;;;;;17.10;7.63;;;2.90;88.50;;;;;;6330457;22;20571;-80
2024/01/25 06:34:13;;;;;;;5.07;4.67;;;2.90;88.60;;;;;;6327609;22;20179;-80
2024/01/25 06:36:41;;;;;;;15.10;11.47;;;2.90;88.60;;;;;;6332713;22;20168;-81
2024/01/25 06:39:10;;;;;;;17.43;10.40;;;2.90;88.80;;;;;;6330870;22;20168;-81
2024/01/25 06:41:54;;;;;;;7.33;5.87;;;3.00;88.90;;;;;;6329406;22;20172;-81
2024/01/25 06:44:22;;;;;;;9.87;7.50;;;3.00;88.90;;;;;;6326698;22;20175;-81
2024/01/25 06:46:51;;;;;;;33.47;8.43;;;3.00;88.90;;;;;;6329649;22;20196;-81
2024/01/25 06:49:19;;;;;;;16.27;9.00;;;3.10;89.00;;;;;;6331371;22;20169;-81
2024/01/25 06:52:17;;;;;;;17.43;10.33;;;3.10;89.10;;;;;;6327515;22;20165;-80
2024/01/25 06:54:46;;;;;;;9.73;6.33;;;3.10;89.10;;;;;;6320029;22;20251;-81
2024/01/25 06:57:31;;;;;;;8.83;4.80;;;3.20;89.20;;;;;;6332303;22;20172;-81
2024/01/25 07:02:55;;;;;;;6.43;4.07;;;3.30;89.20;;;;;;6322993;22;20628;-80
2024/01/25 07:05:24;;;;;;;5.03;4.53;;;3.40;89.20;;;;;;6330191;22;20572;-81
2024/01/25 07:07:53;;;;;;;9.63;4.60;;;3.50;89.30;;;;;;6331840;22;20200;-82
2024/01/25 07:10:22;;;;;;;7.07;4.37;;;3.50;88.90;;;;;;6330648;22;20168;-81
2024/01/25 07:13:06;;;;;;;6.47;5.47;;;3.50;88.90;;;;;;6327192;22;20180;-81
2024/01/25 07:15:35;;;;;;;3.83;3.13;;;3.60;89.10;;;;;;6331714;22;20169;-81
2024/01/25 07:18:03;;;;;;;5.07;4.60;;;3.60;89.20;;;;;;6331168;22;20171;-81
2024/01/25 07:20:32;;;;;;;5.23;4.17;;;3.70;89.40;;;;;;6332137;22;20169;-80
2024/01/25 07:23:01;;;;;;;12.10;5.13;;;3.80;89.50;;;;;;6330430;22;20210;-80
2024/01/25 07:25:30;;;;;;;4.90;3.13;;;3.90;89.70;;;;;;6330826;22;20172;-80
2024/01/25 07:27:58;;;;;;;4.00;3.53;;;3.90;89.70;;;;;;6330858;22;20242;-80
2024/01/25 07:30:28;;;;;;;5.83;5.33;;;4.00;89.70;;;;;;6330071;22;20169;-80
2024/01/25 07:32:57;;;;;;;13.43;5.30;;;4.00;89.70;;;;;;6329822;22;20175;-80
2024/01/25 07:38:21;;;;;;;17.00;7.33;;;4.10;89.70;;;;;;6328579;22;20172;-80
2024/01/25 07:43:32;;;;;;;7.10;6.40;;;4.20;89.60;;;;;;6325675;22;20587;-79
2024/01/25 07:46:17;;;;;;;19.57;8.47;;;4.20;89.60;;;;;;6329668;22;20168;-81
2024/01/25 07:51:42;;;;;;;6.50;3.53;;;4.40;89.60;;;;;;6328865;22;20631;-82
2024/01/25 07:54:11;;;;;;;5.33;4.20;;;4.40;89.50;;;;;;6328418;22;20168;-81
2024/01/25 07:56:40;;;;;;;6.60;5.03;;;4.50;89.50;;;;;;6331602;22;20165;-82
2024/01/25 07:59:22;;;;;;;6.73;5.87;;;4.60;89.70;;;;;;6331408;22;20235;-81
2024/01/25 08:05:04;;;;;;;3.23;2.77;;;4.70;89.40;;;;;;6328843;22;20255;-82
2024/01/25 08:10:29;;;;;;;3.10;2.83;;;4.80;89.40;;;;;;6330335;22;20169;-82
2024/01/25 08:13:11;;;;;;;4.10;3.73;;;4.90;89.50;;;;;;6324916;22;20659;-81
2024/01/25 08:18:22;;;;;;;12.63;5.23;;;4.90;90.10;;;;;;6328946;22;20204;-82
2024/01/25 08:21:06;;;;;;;6.27;5.77;;;5.00;90.10;;;;;;6326414;22;20688;-81
2024/01/25 08:28:59;;;;;;;5.37;3.60;;;5.20;90.20;;;;;;6335335;22;20210;-81
2024/01/25 08:31:28;;;;;;;13.27;5.80;;;5.40;90.40;;;;;;6357972;22;20157;-82
2024/01/25 08:37:09;;;;;;;10.40;3.90;;;5.60;90.30;;;;;;6333369;22;20230;-80
2024/01/25 08:39:53;;;;;;;8.83;4.53;;;5.60;90.20;;;;;;6331886;22;20183;-81
2024/01/25 08:42:36;;;;;;;17.87;4.40;;;5.70;90.20;;;;;;6332175;22;20178;-82
2024/01/25 08:47:49;;;;;;;5.00;3.72;;;5.90;90.00;;;;;;6329793;22;20409;-82
2024/01/25 08:53:00;;;;;;;4.17;3.67;;;6.20;90.00;;;;;;6329081;22;20198;-83
2024/01/25 08:55:58;;;;;;;2.40;1.97;;;6.30;89.80;;;;;;6330184;22;20171;-81
2024/01/25 09:01:42;;;;;;;4.87;1.70;;;6.50;89.20;;;;;;6329276;22;20161;-81
2024/01/25 09:04:10;;;;;;;3.10;2.83;;;6.60;89.50;;;;;;6328425;22;20176;-80
2024/01/25 09:06:39;;;;;;;5.70;3.10;;;6.60;89.20;;;;;;6329874;22;20646;-79
2024/01/25 09:09:08;;;;;;;2.37;2.17;;;6.70;89.10;;;;;;6331800;22;20171;-79
2024/01/25 09:11:36;;;;;;;2.90;2.20;;;6.70;89.00;;;;;;6332878;22;20168;-80
2024/01/25 09:14:36;;;;;;;3.37;3.07;;;6.80;89.00;;;;;;6327826;22;20172;-80
2024/01/25 09:17:05;;;;;;;5.03;3.20;;;6.90;88.90;;;;;;6329517;22;20164;-81
2024/01/25 09:19:33;;;;;;;11.13;5.07;;;6.90;88.60;;;;;;6333207;22;20176;-82
2024/01/25 09:22:17;;;;;;;3.00;2.60;;;6.90;88.30;;;;;;6329510;22;20168;-81
2024/01/25 09:24:45;;;;;;;2.93;2.53;;;6.90;88.40;;;;;;6330517;22;20172;-83
2024/01/25 09:30:13;;;;;;;4.87;3.40;;;7.00;88.30;;;;;;6327592;22;20828;-82
2024/01/25 09:32:42;;;;;;;1.90;1.67;;;7.10;88.50;;;;;;6330078;22;20504;-82
2024/01/25 09:35:11;;;;;;;2.58;2.38;;;7.10;88.30;;;;;;6329165;22;20387;-83
2024/01/25 09:37:39;;;;;;;4.43;3.50;;;7.20;88.30;;;;;;6331380;22;20248;-82
2024/01/25 09:40:09;;;;;;;4.67;2.43;;;7.20;87.90;;;;;;6332378;22;20547;-82
2024/01/25 09:42:38;;;;;;;2.30;1.43;;;7.30;88.20;;;;;;6332315;22;20230;-81
2024/01/25 09:47:53;;;;;;;3.13;2.83;;;7.60;88.40;;;;;;6327641;22;20297;-82
2024/01/25 09:53:06;;;;;;;2.90;2.70;;;7.80;87.70;;;;;;6326030;22;20169;-82
2024/01/25 09:58:40;;;;;;;4.93;2.63;;;8.00;87.20;;;;;;6329173;22;20168;-82
2024/01/25 10:01:13;;;;;;;7.20;2.73;;;8.10;86.90;;;;;;6329747;22;20168;-82
2024/01/25 10:03:45;;;;;;;2.37;2.17;;;8.10;86.60;;;;;;6327479;22;20175;-82
2024/01/25 10:06:15;;;;;;;1.37;1.27;;;8.20;86.60;;;;;;6330501;22;20199;-81
2024/01/25 10:08:44;;;;;;;4.60;4.00;;;8.30;85.80;;;;;;6328254;22;20204;-82
2024/01/25 10:11:12;;;;;;;2.43;2.23;;;8.30;85.70;;;;;;6330430;22;20195;-82
2024/01/25 10:13:44;;;;;;;7.30;2.63;;;8.40;85.70;;;;;;6330897;22;20219;-82
2024/01/25 10:16:14;;;;;;;2.57;2.10;;;8.40;84.80;;;;;;6330573;22;20655;-81
2024/01/25 10:19:13;;;;;;;1.90;1.80;;;8.40;84.40;;;;;;6329566;22;20168;-82
2024/01/25 10:21:43;;;;;;;3.27;2.90;;;8.40;84.50;;;;;;6331890;22;20172;-83
2024/01/25 10:24:13;;;;;;;8.40;3.13;;;8.60;84.70;;;;;;6331769;22;20172;-82
2024/01/25 10:29:27;;;;;;;2.33;1.77;;;8.60;83.60;;;;;;6330395;22;20750;-83
2024/01/25 10:31:56;;;;;;;6.17;2.10;;;8.70;83.60;;;;;;6333082;22;20175;-83
2024/01/25 10:34:27;;;;;;;5.10;2.93;;;8.70;83.40;;;;;;6330092;22;20623;-82
2024/01/25 10:39:54;;;;;;;6.83;2.57;;;8.60;83.30;;;;;;6334180;22;20243;-83
2024/01/25 10:42:23;;;;;;;5.83;2.93;;;8.60;83.50;;;;;;6337282;22;20203;-82
2024/01/25 10:44:51;;;;;;;1.50;1.40;;;8.60;83.50;;;;;;6330074;22;20503;-83
2024/01/25 10:50:08;;;;;;;2.03;1.70;;;8.50;83.50;;;;;;6330774;22;20164;-84
2024/01/25 10:58:04;;;;;;;3.93;3.07;;;8.60;83.30;;;;;;6333282;22;20729;-83
2024/01/25 11:00:33;;;;;;;1.50;1.40;;;8.60;83.50;;;;;;6332564;22;20271;-81
2024/01/25 11:03:15;;;;;;;2.30;2.10;;;8.60;83.60;;;;;;6327382;22;20161;-81
2024/01/25 11:08:29;;;;;;;7.30;2.90;;;8.70;83.90;;;;;;6333175;22;20208;-82
2024/01/25 11:13:41;;;;;;;2.27;2.00;;;8.70;83.90;;;;;;6342780;22;20207;-81
2024/01/25 11:16:14;;;;;;;2.17;2.03;;;8.80;84.00;;;;;;6357786;22;20220;-81
2024/01/25 11:18:50;;;;;;;2.57;1.73;;;8.80;84.10;;;;;;6347511;22;20199;-81
2024/01/25 11:21:39;;;;;;;4.73;2.77;;;8.90;83.80;;;;;;6343686;22;20242;-81
2024/01/25 11:24:13;;;;;;;2.93;2.27;;;9.00;83.90;;;;;;6330488;22;20509;-85
2024/01/25 11:26:45;;;;;;;1.00;1.00;;;9.10;83.70;;;;;;6333710;22;20172;-84
2024/01/25 11:29:16;;;;;;;6.10;3.50;;;9.20;83.90;;;;;;6335217;22;20196;-85
2024/01/25 11:31:45;;;;;;;2.93;2.53;;;9.40;84.00;;;;;;6332793;22;20259;-83
2024/01/25 11:34:15;;;;;;;7.53;2.53;;;9.50;83.10;;;;;;6332022;22;20165;-82
2024/01/25 11:36:46;;;;;;;2.87;2.67;;;9.60;83.00;;;;;;6339817;22;20198;-86
2024/01/25 11:39:16;;;;;;;3.40;1.63;;;9.70;82.20;;;;;;6334689;22;20179;-85
2024/01/25 11:41:45;;;;;;;4.80;2.93;;;9.80;81.90;;;;;;6333902;22;20192;-84
2024/01/25 11:44:14;;;;;;;3.83;2.20;;;9.90;80.90;;;;;;6330866;22;20643;-83
2024/01/25 11:46:43;;;;;;;4.20;2.27;;;10.00;81.40;;;;;;6330538;22;20189;-83
2024/01/25 11:49:12;;;;;;;10.93;3.03;;;10.10;81.40;;;;;;6330915;22;20193;-82
2024/01/25 11:51:42;;;;;;;4.83;2.53;;;10.20;81.30;;;;;;6329941;22;20226;-84
2024/01/25 11:56:55;;;;;;;3.57;2.30;;;10.50;81.00;;;;;;6332413;22;20256;-86
2024/01/25 11:59:23;;;;;;;1.97;1.73;;;10.60;79.80;;;;;;6332458;22;20270;-84
2024/01/25 12:04:36;;;;;;;2.67;2.47;;;10.70;79.70;;;;;;6327342;22;20172;-84
2024/01/25 12:10:00;;;;;;;3.13;1.27;;;11.00;80.40;;;;;;6330275;22;20569;-85
2024/01/25 12:12:29;;;;;;;2.83;2.17;;;11.10;80.60;;;;;;6334534;22;20164;-83
2024/01/25 12:17:56;;;;;;;4.37;2.20;;;11.30;80.20;;;;;;6327313;22;20251;-80
2024/01/25 12:23:09;;;;;;;5.00;1.73;;;11.50;79.00;;;;;;6327223;22;20168;-80
2024/01/25 12:31:21;;;;;;;1.57;1.47;;;11.80;76.90;;;;;;6331728;22;20247;-79
2024/01/25 12:33:49;;;;;;;7.50;1.90;;;11.80;75.10;;;;;;6331318;22;20541;-79
2024/01/25 12:39:00;;;;;;;4.83;1.83;;;12.00;75.10;;;;;;6331237;22;20164;-79
2024/01/25 12:41:31;;;;;;;2.93;1.63;;;12.00;75.20;;;;;;6333597;22;20243;-79
2024/01/25 12:44:00;;;;;;;2.73;1.53;;;12.00;74.70;;;;;;6328436;22;20172;-80
2024/01/25 12:46:29;;;;;;;2.03;1.80;;;12.00;74.70;;;;;;6332679;22;20175;-80
2024/01/25 12:51:55;;;;;;;2.53;2.20;;;12.00;72.80;;;;;;6329624;22;20508;-79
2024/01/25 12:54:23;;;;;;;2.03;1.83;;;12.00;73.00;;;;;;6330107;22;20173;-80
2024/01/25 12:56:54;;;;;;;4.17;2.13;;;12.10;74.20;;;;;;6334058;22;20628;-80
2024/01/25 12:59:23;;;;;;;2.47;2.00;;;12.20;74.40;;;;;;6332723;22;20179;-81
2024/01/25 13:01:51;;;;;;;2.27;1.50;;;12.30;75.60;;;;;;6330540;22;20207;-80
2024/01/25 13:04:22;;;;;;;5.50;1.17;;;12.40;73.60;;;;;;6327435;22;20210;-80
2024/01/25 13:06:53;;;;;;;2.40;1.90;;;12.40;72.70;;;;;;6333788;22;20223;-81
2024/01/25 13:09:22;;;;;;;2.37;1.53;;;12.50;72.30;;;;;;6334471;22;20204;-80
2024/01/25 13:11:53;;;;;;;4.00;2.10;;;12.70;72.40;;;;;;6329879;22;20239;-81
2024/01/25 13:14:23;;;;;;;1.10;1.00;;;12.70;71.90;;;;;;6329976;22;20173;-81
2024/01/25 13:16:52;;;;;;;1.90;1.50;;;12.80;72.20;;;;;;6333949;22;20164;-81
2024/01/25 13:19:21;;;;;;;2.77;1.80;;;12.90;72.60;;;;;;6334505;22;20810;-81
2024/01/25 13:21:50;;;;;;;4.33;2.37;;;13.20;72.10;;;;;;6334659;22;20169;-80
2024/01/25 13:24:20;;;;;;;1.43;1.33;;;13.50;72.20;;;;;;6330440;22;20168;-81
2024/01/25 13:26:49;;;;;;;5.20;1.67;;;13.70;72.20;;;;;;6333566;22;20196;-79
2024/01/25 13:29:19;;;;;;;5.13;1.75;;;14.00;74.10;;;;;;6334187;22;20199;-79
2024/01/25 13:31:48;;;;;;;1.08;0.90;;;14.50;74.00;;;;;;6332115;22;20168;-80
2024/01/25 13:34:17;;;;;;;1.02;0.85;;;14.90;72.70;;;;;;6331335;22;20507;-79
2024/01/25 13:36:45;;;;;;;4.15;1.38;;;15.20;71.30;;;;;;6333286;22;20219;-80
2024/01/25 13:39:14;;;;;;;4.03;1.42;;;15.50;67.00;;;;;;6333553;22;20172;-82
2024/01/25 13:41:42;;;;;;;2.30;1.02;;;16.30;67.10;;;;;;6330916;22;20168;-84
2024/01/25 13:44:11;;;;;;;1.13;0.98;;;17.50;62.90;;;;;;6329724;22;20168;-84
2024/01/25 13:46:41;;;;;;;1.40;0.80;;;18.80;61.40;;;;;;6332379;22;20165;-84
2024/01/25 13:49:09;;;;;;;0.63;0.60;;;21.10;55.70;;;;;;6333332;22;20506;-84
2024/01/25 13:51:38;;;;;;;11.18;1.00;;;21.70;51.10;;;;;;6329935;22;20241;-84
2024/01/25 13:54:06;;;;;;;1.60;0.85;;;23.80;48.70;;;;;;6330858;22;20259;-84
2024/01/25 13:56:35;;;;;;;0.63;0.63;;;24.50;46.90;;;;;;6334675;22;20165;-84
2024/01/25 13:59:03;;;;;;;5.10;1.23;;;25.60;44.20;;;;;;6341342;22;20198;-84
2024/01/25 14:01:32;;;;;;;1.00;0.90;;;27.30;42.50;;;;;;6361608;22;20195;-85
2024/01/25 14:04:02;;;;;;;4.00;2.28;;;27.80;40.60;;;;;;6351051;22;20172;-84
2024/01/25 14:06:31;;;;;;;2.22;1.27;;;25.40;42.10;;;;;;6343080;22;20578;-85
2024/01/25 14:08:59;;;;;;;1.38;1.27;;;23.70;43.20;;;;;;6337938;22;20171;-84
2024/01/25 14:11:28;;;;;;;1.17;1.08;;;22.20;45.20;;;;;;6332365;22;20168;-85
2024/01/25 14:13:57;;;;;;;1.50;1.33;;;21.00;47.60;;;;;;6329406;22;20164;-85
2024/01/25 14:16:25;;;;;;;2.50;1.42;;;19.90;48.30;;;;;;6332522;22;20554;-84
2024/01/25 14:18:54;;;;;;;1.23;0.85;;;19.10;49.80;;;;;;6333174;22;20214;-85
2024/01/25 14:21:24;;;;;;;0.93;0.93;;;19.40;50.40;;;;;;6331762;22;20696;-83
2024/01/25 14:24:06;;;;;;;1.37;0.90;;;18.70;50.30;;;;;;6327708;22;20165;-84
2024/01/25 14:26:35;;;;;;;1.33;1.20;;;17.80;51.40;;;;;;6328520;22;20990;-84
2024/01/25 14:29:17;;;;;;;0.80;0.80;;;17.60;52.50;;;;;;6330793;22;20180;-83
2024/01/25 14:31:59;;;;;;;1.77;1.47;;;18.30;51.80;;;;;;6328699;22;20172;-85
2024/01/25 14:37:12;;;;;;;3.13;0.70;;;17.60;53.60;;;;;;6329636;22;20367;-85
2024/01/25 14:39:40;;;;;;;1.03;0.93;;;17.50;53.80;;;;;;6329544;22;20188;-84
2024/01/25 14:45:02;;;;;;;3.23;1.70;;;16.80;54.90;;;;;;6326658;22;20173;-84
2024/01/25 14:47:30;;;;;;;1.80;1.13;;;16.40;55.30;;;;;;6334178;22;20168;-87
2024/01/25 14:49:59;;;;;;;2.73;0.93;;;16.00;56.00;;;;;;6330595;22;20176;-86
2024/01/25 14:52:33;;;;;;;4.03;1.63;;;15.60;56.60;;;;;;6332222;22;20255;-87
2024/01/25 14:55:02;;;;;;;1.27;0.80;;;15.30;57.20;;;;;;6328009;22;20168;-86
2024/01/25 14:57:45;;;;;;;0.87;0.87;;;15.00;57.70;;;;;;6332524;22;20160;-86
2024/01/25 15:00:19;;;;;;;4.87;1.47;;;14.70;58.20;;;;;;6334219;22;20279;-87
2024/01/25 15:05:44;;;;;;;0.80;0.80;;;14.20;59.10;;;;;;6332098;22;20203;-86
2024/01/25 15:08:27;;;;;;;1.70;1.60;;;13.90;59.60;;;;;;6347196;22;20178;-87
2024/01/25 15:11:09;;;;;;;1.70;1.10;;;13.70;60.00;;;;;;6329729;22;20164;-84
2024/01/25 15:13:38;;;;;;;1.23;1.17;;;13.50;60.50;;;;;;6331158;22;20176;-87
2024/01/25 15:16:08;;;;;;;0.70;0.70;;;13.30;60.90;;;;;;6332776;22;20200;-87
2024/01/25 15:18:36;;;;;;;1.60;1.37;;;13.10;61.20;;;;;;6334762;22;20622;-87
2024/01/25 15:21:05;;;;;;;8.20;2.27;;;12.90;61.60;;;;;;6332408;22;20192;-85